Aviation Digital Data Service (ADDS)

Output produced by METARs form (1421 UTC 19 April 2019)
found at http://www.aviationweather.gov/metar/data/
 
Forecast for: DAOI (CHLEF , DZ)
Text: TAF DAOI 191100Z 1912/2012 32010KT 9999 SCT026 BKN030
Forecast period: 1200 UTC 19 April 2019 to 0200 UTC 20 April 2019
Forecast type: FROM: standard forecast or significant change
Winds: from the NW (320 degrees) at 12 MPH (10 knots; 5.1 m/s)
Visibility: 6 or more miles 10+ km)
Ceiling: 3000 feet AGL
Clouds: scattered clouds at 2600 feet AGL
broken clouds at 3000 feet AGL
Weather: no significant weather forecast for this period
Text: TEMPO 1912/1924 7000 RA SCT010 BKN026 BKN233
Forecast period: 1200 UTC 19 April 2019 to 0000 UTC 20 April 2019
Forecast type: TEMPORARY: The following changes expected for less than half the time period
Visibility: 4 miles (7 km)
Ceiling: 2600 feet AGL
Clouds: scattered clouds at 1000 feet AGL
broken clouds at 2600 feet AGL
broken clouds at 23300 feet AGL
Weather: RA  (moderate rain)
Text: BECMG 2002/2004 VRB02KT 6000 SCT010 SCT023 SCT026
Forecast period: 0200 to 1200 UTC 20 April 2019
Forecast type: BECOMING: Conditions expected to become as follows by 0400 UTC 20 April 2019
Winds: variable direction winds at 2 MPH (2 knots; 1.0 m/s)
Visibility: 4 miles (6 km)
Ceiling: at least 12,000 feet AGL
Clouds: scattered clouds at 1000 feet AGL
scattered clouds at 2300 feet AGL
scattered clouds at 2600 feet AGL
Weather: no significant weather forecast for this period